Edna Bay, Alaska
Current Conditions -  °F | °C
As of 1:53 PM on Saturday 25 Oct 2014 (Local Time) from PAKW Reporting Station
Clear Clear  
Wind Chill: 54°   Ceiling: Unl
Heat Index: 54°   Visibility: 10mi
Dew Point: 40°   Wind: 9mph
Humidity: 59%   Direction: 50°NE
Pressure: 29.59"   Gusts: NA
Location:  55.8158°N, 132.958°W
Report Text: PAKW 252153Z AUTO 05008KT 10SM CLR 12/04 A2959 RMK AO2 SLP020 T01220044 TSNO
Loading
Personal Weather Stations






























Interactive Weather Map
Tropical Storm Tracking
New forecast layout! Learn more

10-Day Weather Forecast

Advertisements
Track Severe Weather on mobile